Time;durP1;ratioP1;P1;durP2;ratioP2;P2;SDS_P1;SDS_P2;PMS_P1;PMS_P2;Temp;Humidity;BMP_temperature;BMP_pressure;BME280_temperature;BME280_humidity;BME280_pressure;Samples;Min_cycle;Max_cycle;Signal;HPM_P1;HPM_P2
2023/09/20 00:01:23;;;;;;;;;2.00;1.00;;;;;28.28;39.52;100908.25;5058277;28;45325;-83
2023/09/20 00:03:48;;;;;;;;;3.00;1.00;;;;;28.35;39.46;100914.34;5058030;28;45390;-82
2023/09/20 00:06:16;;;;;;;;;1.00;1.00;;;;;28.34;39.72;100907.34;5058331;28;45479;-82
2023/09/20 00:08:42;;;;;;;;;1.67;1.67;;;;;28.36;39.75;100904.47;5057735;28;47211;-83
2023/09/20 00:11:08;;;;;;;;;2.00;2.00;;;;;28.36;39.46;100902.63;5058050;28;45366;-83
2023/09/20 00:13:34;;;;;;;;;2.00;1.00;;;;;28.31;39.86;100907.81;5058107;28;45358;-82
2023/09/20 00:16:00;;;;;;;;;3.67;2.33;;;;;28.35;39.75;100903.63;5057881;28;45389;-81
2023/09/20 00:18:26;;;;;;;;;3.33;2.33;;;;;28.31;39.13;100891.75;5058433;28;46367;-83
2023/09/20 00:20:51;;;;;;;;;2.33;1.67;;;;;28.32;39.29;100887.19;5058139;28;45459;-83
2023/09/20 00:23:21;;;;;;;;;3.00;2.00;;;;;28.29;39.40;100885.78;5057999;28;45328;-81
2023/09/20 00:25:49;;;;;;;;;2.00;2.00;;;;;28.38;39.77;100894.34;5058056;28;45463;-83
2023/09/20 00:28:15;;;;;;;;;1.00;1.00;;;;;28.21;39.17;100859.34;5057751;28;47029;-83
2023/09/20 00:30:42;;;;;;;;;2.33;1.00;;;;;28.14;39.65;100849.53;5057964;28;45228;-83
2023/09/20 00:33:07;;;;;;;;;3.67;2.00;;;;;28.35;39.66;100882.25;5058092;28;45405;-83
2023/09/20 00:35:39;;;;;;;;;2.67;1.00;;;;;28.37;39.31;100884.69;5057632;28;45279;-82
2023/09/20 00:38:04;;;;;;;;;2.00;1.00;;;;;28.36;39.36;100883.06;5057285;28;46280;-83
2023/09/20 00:40:32;;;;;;;;;1.67;1.67;;;;;28.25;39.50;100871.22;5057413;28;45426;-83
2023/09/20 00:42:58;;;;;;;;;2.00;2.00;;;;;28.28;39.07;100868.13;5057875;28;45387;-83
2023/09/20 00:45:23;;;;;;;;;1.00;1.00;;;;;28.25;39.80;100860.53;5057807;28;45393;-83
2023/09/20 00:47:58;;;;;;;;;1.00;1.00;;;;;28.25;39.63;100855.19;5057354;28;46765;-83
2023/09/20 00:50:27;;;;;;;;;1.67;1.67;;;;;28.32;39.63;100868.47;5057601;28;45508;-83
2023/09/20 00:52:54;;;;;;;;;2.00;1.67;;;;;28.35;39.93;100868.03;5055791;28;45591;-84
2023/09/20 00:55:31;;;;;;;;;2.33;2.00;;;;;28.35;39.71;100876.88;5057481;28;45352;-83
2023/09/20 00:58:03;;;;;;;;;1.33;1.33;;;;;28.35;39.77;100873.38;5057432;28;46017;-83
2023/09/20 01:00:32;;;;;;;;;4.00;2.00;;;;;28.22;39.60;100844.94;5057582;28;45369;-83
2023/09/20 01:02:59;;;;;;;;;2.00;2.00;;;;;28.28;39.61;100855.56;5057092;28;45337;-82
2023/09/20 01:05:36;;;;;;;;;2.67;2.00;;;;;28.35;40.02;100862.69;5057173;28;45307;-83
2023/09/20 01:08:03;;;;;;;;;1.00;1.00;;;;;28.37;39.98;100865.94;5056513;28;47010;-83
2023/09/20 01:10:31;;;;;;;;;6.00;3.00;;;;;28.26;39.70;100846.13;5057188;28;45743;-83
2023/09/20 01:12:58;;;;;;;;;1.33;1.00;;;;;28.31;39.68;100851.63;5057272;28;45579;-83
2023/09/20 01:15:25;;;;;;;;;1.00;1.00;;;;;28.37;40.09;100847.22;5057167;28;45434;-83
2023/09/20 01:17:58;;;;;;;;;2.67;2.67;;;;;28.33;39.73;100843.38;5057212;28;46851;-83
2023/09/20 01:20:28;;;;;;;;;2.00;0.67;;;;;28.37;39.60;100844.53;5056499;28;45304;-80
2023/09/20 01:22:56;;;;;;;;;1.00;1.00;;;;;28.36;39.75;100849.09;5057705;28;45566;-82
2023/09/20 01:25:25;;;;;;;;;2.67;1.00;;;;;28.31;39.64;100834.75;5057296;28;45395;-83
2023/09/20 01:27:55;;;;;;;;;2.00;2.00;;;;;28.16;40.21;100810.00;5056775;28;47161;-83
2023/09/20 01:30:30;;;;;;;;;0.67;0.67;;;;;28.31;39.57;100832.91;5056923;28;45299;-83
2023/09/20 01:32:57;;;;;;;;;4.00;1.67;;;;;28.25;40.31;100820.41;5057161;28;45336;-83
2023/09/20 01:35:24;;;;;;;;;2.33;2.33;;;;;28.36;40.01;100842.94;5056757;28;45310;-83
2023/09/20 01:37:50;;;;;;;;;1.00;1.00;;;;;28.34;40.26;100837.78;5056729;28;45580;-83
2023/09/20 01:40:16;;;;;;;;;2.00;2.00;;;;;28.19;39.57;100816.75;5057068;28;45386;-83
2023/09/20 01:42:50;;;;;;;;;1.00;1.00;;;;;28.36;39.72;100824.19;5056694;28;45471;-83
2023/09/20 01:45:20;;;;;;;;;3.00;1.00;;;;;28.32;39.89;100820.31;5057161;28;45353;-83
2023/09/20 01:47:53;;;;;;;;;2.00;2.00;;;;;28.32;40.10;100820.31;5056825;28;45440;-83
2023/09/20 01:50:20;;;;;;;;;2.67;2.33;;;;;28.26;39.86;100822.84;5056290;28;45273;-83
2023/09/20 01:52:48;;;;;;;;;2.33;1.33;;;;;28.29;39.82;100808.22;5056366;28;45548;-83
2023/09/20 01:55:15;;;;;;;;;3.33;1.67;;;;;28.35;39.88;100817.19;5056520;28;45409;-83
2023/09/20 01:57:41;;;;;;;;;2.00;2.00;;;;;28.34;39.58;100812.91;5056250;28;46908;-83
2023/09/20 02:00:16;;;;;;;;;1.00;1.00;;;;;28.35;39.82;100812.69;5056440;28;45264;-83
2023/09/20 02:02:43;;;;;;;;;2.67;1.00;;;;;28.32;39.82;100804.28;5056609;28;45350;-84
2023/09/20 02:05:10;;;;;;;;;1.00;1.00;;;;;28.20;39.91;100786.31;5055768;28;45413;-83
2023/09/20 02:07:35;;;;;;;;;2.00;1.00;;;;;28.24;39.57;100789.34;5056067;28;47207;-83
2023/09/20 02:10:02;;;;;;;;;1.00;1.00;;;;;28.35;39.62;100799.31;5056160;28;45638;-83
2023/09/20 02:12:27;;;;;;;;;1.67;1.00;;;;;27.47;39.65;100646.03;5056639;28;45283;-83
2023/09/20 02:14:52;;;;;;;;;1.67;1.67;;;;;28.36;39.81;100800.94;5056456;28;45221;-83
2023/09/20 02:17:18;;;;;;;;;1.67;1.67;;;;;28.36;40.13;100790.25;5055921;28;46254;-83
2023/09/20 02:19:45;;;;;;;;;1.33;1.00;;;;;28.27;40.14;100776.34;5056140;28;45396;-83
2023/09/20 02:22:12;;;;;;;;;2.00;2.00;;;;;28.22;40.13;100762.81;5056528;28;45374;-83
2023/09/20 02:24:38;;;;;;;;;2.33;1.67;;;;;28.16;39.79;100753.00;5056423;28;45499;-83
2023/09/20 02:27:08;;;;;;;;;1.67;1.67;;;;;28.31;40.20;100773.22;5056084;28;45561;-82
2023/09/20 02:29:33;;;;;;;;;1.33;1.33;;;;;28.36;39.68;100784.06;5055977;28;45623;-83
2023/09/20 02:32:00;;;;;;;;;4.00;1.00;;;;;28.14;40.03;100742.56;5055073;28;45352;-83
2023/09/20 02:34:26;;;;;;;;;3.00;2.33;;;;;28.36;40.32;100773.38;5055644;28;45482;-83
2023/09/20 02:36:51;;;;;;;;;2.00;2.00;;;;;28.09;39.90;100723.69;5055635;28;45485;-83
2023/09/20 02:39:18;;;;;;;;;0.33;0.33;;;;;28.35;40.11;100758.34;5055697;28;45411;-83
2023/09/20 02:41:44;;;;;;;;;2.00;2.00;;;;;28.24;40.10;100746.53;5055971;28;45387;-82
2023/09/20 02:44:09;;;;;;;;;1.00;1.00;;;;;28.32;40.16;100754.25;5055878;28;45682;-83
2023/09/20 02:46:35;;;;;;;;;1.00;1.00;;;;;28.34;39.91;100751.38;5055878;28;46368;-83
2023/09/20 02:49:00;;;;;;;;;1.00;1.00;;;;;28.32;40.37;100745.41;5055496;28;45248;-82
2023/09/20 02:51:25;;;;;;;;;3.33;2.00;;;;;28.34;40.02;100744.16;5055622;28;45225;-83
2023/09/20 02:53:50;;;;;;;;;1.00;1.00;;;;;28.27;39.81;100740.75;5056243;28;45221;-83
2023/09/20 02:56:17;;;;;;;;;1.00;1.00;;;;;28.11;40.44;100705.56;5055551;28;45919;-83
2023/09/20 02:58:47;;;;;;;;;1.33;1.33;;;;;28.34;39.84;100749.50;5055841;28;45310;-83
2023/09/20 03:01:15;;;;;;;;;1.00;1.00;;;;;28.28;40.43;100732.50;5055559;28;45393;-83
2023/09/20 03:03:41;;;;;;;;;2.00;2.00;;;;;28.03;40.60;100685.28;5055136;28;45441;-84
2023/09/20 03:06:09;;;;;;;;;1.00;1.00;;;;;28.23;39.87;100724.34;5055334;28;47520;-83
2023/09/20 03:08:35;;;;;;;;;1.67;1.67;;;;;28.31;39.53;100733.09;5055755;28;45436;-84
2023/09/20 03:11:01;;;;;;;;;1.00;1.00;;;;;28.11;39.96;100699.38;5055595;28;45442;-83
2023/09/20 03:13:27;;;;;;;;;1.33;1.33;;;;;28.10;39.92;100703.94;5055338;28;45414;-83
2023/09/20 03:15:54;;;;;;;;;2.00;2.00;;;;;28.36;39.69;100733.22;5055429;28;46849;-83
2023/09/20 03:18:22;;;;;;;;;4.00;1.00;;;;;28.37;40.33;100734.84;5055053;28;45398;-83
2023/09/20 03:20:48;;;;;;;;;1.67;1.00;;;;;28.27;40.07;100714.81;5055672;28;45257;-83
2023/09/20 03:23:14;;;;;;;;;1.67;1.67;;;;;28.34;40.14;100730.78;5055662;28;45329;-82
2023/09/20 03:25:40;;;;;;;;;1.00;1.00;;;;;28.36;39.78;100726.03;5055160;28;46134;-81
2023/09/20 03:28:10;;;;;;;;;1.00;1.00;;;;;28.38;39.85;100725.78;5055385;28;45339;-82
2023/09/20 03:30:39;;;;;;;;;3.00;1.00;;;;;28.29;40.12;100712.72;5055286;28;45347;-83
2023/09/20 03:33:05;;;;;;;;;1.67;1.67;;;;;28.34;39.98;100714.72;5054816;28;45467;-82
2023/09/20 03:35:32;;;;;;;;;2.00;1.67;;;;;28.34;40.19;100712.03;5055035;28;46308;-82
2023/09/20 03:37:57;;;;;;;;;2.00;2.00;;;;;28.26;40.13;100697.13;5055025;28;45432;-83
2023/09/20 03:40:23;;;;;;;;;0.00;0.00;;;;;28.05;40.03;100661.81;5055583;28;45396;-83
2023/09/20 03:42:52;;;;;;;;;2.00;2.00;;;;;28.29;40.48;100699.34;5055412;28;45517;-83
2023/09/20 03:45:17;;;;;;;;;1.67;1.00;;;;;28.28;39.92;100694.25;5058585;28;46371;-83
2023/09/20 03:47:49;;;;;;;;;2.67;1.00;;;;;28.05;40.04;100653.00;5057985;28;45259;-83
2023/09/20 03:50:18;;;;;;;;;1.00;1.00;;;;;28.32;40.12;100691.91;5058797;28;45356;-82
2023/09/20 03:52:44;;;;;;;;;2.00;1.00;;;;;28.31;40.04;100685.78;5058694;28;45553;-82
2023/09/20 03:55:09;;;;;;;;;3.00;1.67;;;;;28.13;40.44;100655.31;5058779;28;46282;-83
2023/09/20 03:57:37;;;;;;;;;2.00;2.00;;;;;28.31;40.07;100679.59;5058084;28;45431;-83
2023/09/20 04:00:06;;;;;;;;;1.00;1.00;;;;;28.14;40.34;100640.91;5057958;28;45383;-83
2023/09/20 04:02:32;;;;;;;;;2.33;2.00;;;;;28.31;40.04;100659.00;5058428;28;45333;-83
2023/09/20 04:05:00;;;;;;;;;1.67;1.67;;;;;28.17;39.92;100636.97;5057837;28;47101;-83
2023/09/20 04:07:31;;;;;;;;;0.67;0.67;;;;;28.30;39.88;100646.66;5058044;28;45304;-84
2023/09/20 04:09:56;;;;;;;;;1.00;0.33;;;;;28.31;40.37;100647.50;5058354;28;45363;-84
2023/09/20 04:12:23;;;;;;;;;2.00;2.00;;;;;28.29;40.04;100642.34;5058321;28;47894;-84
2023/09/20 04:14:51;;;;;;;;;2.33;1.00;;;;;28.17;40.11;100624.44;5057824;28;47454;-83
2023/09/20 04:17:16;;;;;;;;;1.00;1.00;;;;;28.04;40.18;100600.53;5058174;28;45347;-83
2023/09/20 04:19:42;;;;;;;;;3.00;2.00;;;;;28.27;40.69;100633.75;5058167;28;45454;-83
2023/09/20 04:22:07;;;;;;;;;1.00;1.00;;;;;28.20;40.01;100619.66;5058300;28;45549;-83
2023/09/20 04:24:33;;;;;;;;;2.00;2.00;;;;;28.29;40.12;100639.69;5057991;28;46500;-82
2023/09/20 04:26:58;;;;;;;;;2.67;2.00;;;;;28.31;40.28;100634.13;5057844;28;45415;-82
2023/09/20 04:29:25;;;;;;;;;2.00;1.33;;;;;28.33;40.54;100629.34;5057980;28;45348;-82
2023/09/20 04:31:51;;;;;;;;;1.67;1.00;;;;;28.17;40.34;100611.06;5058134;28;45483;-83
2023/09/20 04:34:16;;;;;;;;;2.00;1.00;;;;;28.31;40.68;100629.59;5056516;28;48164;-83
2023/09/20 04:36:45;;;;;;;;;1.33;1.00;;;;;28.01;40.37;100583.09;5058166;28;45295;-82
2023/09/20 04:39:11;;;;;;;;;2.00;0.67;;;;;28.12;40.35;100599.41;5057773;28;45376;-82
2023/09/20 04:41:37;;;;;;;;;1.33;1.33;;;;;28.18;40.59;100601.97;5056279;28;45400;-82
2023/09/20 04:44:04;;;;;;;;;2.00;0.33;;;;;28.22;40.82;100615.72;5057158;28;46178;-83
2023/09/20 04:46:30;;;;;;;;;1.00;1.00;;;;;28.29;40.20;100628.97;5056042;28;46001;-83
2023/09/20 04:48:55;;;;;;;;;2.00;2.00;;;;;28.26;40.76;100613.41;5057903;28;45503;-82
2023/09/20 04:51:20;;;;;;;;;4.33;2.00;;;;;28.15;40.64;100594.44;5057537;28;45386;-82
2023/09/20 04:53:46;;;;;;;;;1.00;1.00;;;;;28.01;40.21;100571.56;5057155;28;46930;-83
2023/09/20 04:56:11;;;;;;;;;2.00;1.00;;;;;28.28;40.88;100614.81;5056500;28;45372;-83
2023/09/20 04:58:37;;;;;;;;;1.67;1.67;;;;;27.87;40.37;100547.69;5057378;28;45334;-82
2023/09/20 05:01:02;;;;;;;;;1.00;1.00;;;;;28.00;40.64;100570.75;5057319;28;45348;-82
2023/09/20 05:03:29;;;;;;;;;2.33;2.33;;;;;28.15;40.32;100589.06;5057092;28;46561;-83
2023/09/20 05:05:54;;;;;;;;;2.00;2.00;;;;;28.23;39.88;100606.66;5057314;28;45387;-83
2023/09/20 05:08:19;;;;;;;;;2.00;1.00;;;;;28.28;40.53;100605.97;5057541;28;45382;-83
2023/09/20 05:10:45;;;;;;;;;2.33;1.33;;;;;28.21;40.76;100592.66;5057311;28;45360;-84
2023/09/20 05:13:11;;;;;;;;;1.67;1.00;;;;;28.30;40.35;100598.53;5056893;28;45479;-83
2023/09/20 05:15:37;;;;;;;;;1.33;1.33;;;;;28.30;40.29;100595.84;5056895;28;45489;-82
2023/09/20 05:18:04;;;;;;;;;2.33;2.33;;;;;28.17;40.60;100576.28;5057277;28;45317;-82
2023/09/20 05:20:31;;;;;;;;;1.00;1.00;;;;;28.17;40.74;100580.81;5057466;28;45275;-82
2023/09/20 05:22:58;;;;;;;;;2.67;1.00;;;;;28.22;40.38;100580.13;5056970;28;45434;-82
2023/09/20 05:25:23;;;;;;;;;2.00;1.00;;;;;28.29;40.88;100595.03;5056778;28;45358;-82
2023/09/20 05:27:49;;;;;;;;;1.00;1.00;;;;;28.29;40.07;100591.53;5056737;28;45379;-82
2023/09/20 05:30:16;;;;;;;;;1.33;1.33;;;;;28.30;40.33;100590.50;5057072;28;45636;-83
2023/09/20 05:32:43;;;;;;;;;1.00;1.00;;;;;28.31;40.89;100592.13;5056829;28;46121;-81
2023/09/20 05:35:10;;;;;;;;;2.00;1.00;;;;;28.32;40.56;100595.59;5057094;28;45447;-81
2023/09/20 05:37:38;;;;;;;;;3.00;2.00;;;;;28.32;40.71;100592.94;5054503;28;45390;-85
2023/09/20 05:40:14;;;;;;;;;2.00;2.00;;;;;28.31;40.89;100586.78;5055275;28;45430;-82
2023/09/20 05:42:40;;;;;;;;;1.00;1.00;;;;;28.05;41.11;100548.69;5044895;28;47022;-83
2023/09/20 05:45:06;;;;;;;;;2.00;0.67;;;;;28.20;40.75;100575.00;5046522;28;45752;-79
2023/09/20 05:47:32;;;;;;;;;1.00;1.00;;;;;28.11;40.67;100554.97;5045612;28;45353;-76
2023/09/20 05:49:58;;;;;;;;;1.00;1.00;;;;;28.25;40.99;100571.66;5043691;28;45432;-76
2023/09/20 05:52:24;;;;;;;;;1.00;1.00;;;;;28.34;40.76;100588.19;5044386;28;46873;-75
2023/09/20 05:54:49;;;;;;;;;2.00;1.67;;;;;28.34;40.82;100583.63;5046215;28;45360;-77
2023/09/20 05:57:14;;;;;;;;;0.67;0.67;;;;;28.09;41.37;100535.69;5044646;28;45345;-77
2023/09/20 05:59:40;;;;;;;;;1.33;1.33;;;;;28.35;41.21;100579.91;5045557;28;45259;-77
2023/09/20 06:02:05;;;;;;;;;3.00;2.00;;;;;28.35;40.86;100579.09;5046003;28;46370;-76
2023/09/20 06:04:31;;;;;;;;;1.00;1.00;;;;;28.35;41.02;100582.59;5054568;28;45429;-81
2023/09/20 06:06:57;;;;;;;;;3.00;1.00;;;;;28.26;41.05;100570.63;5055952;28;45402;-82
2023/09/20 06:09:22;;;;;;;;;1.00;1.00;;;;;28.23;41.58;100563.88;5056119;28;45445;-81
2023/09/20 06:11:47;;;;;;;;;1.00;1.00;;;;;28.25;41.02;100564.44;5056025;28;45918;-81
2023/09/20 06:14:14;;;;;;;;;1.00;1.00;;;;;28.40;41.32;100574.69;5056277;28;45415;-81
2023/09/20 06:16:39;;;;;;;;;2.00;2.00;;;;;28.34;41.44;100564.13;5056066;28;45386;-81
2023/09/20 06:19:05;;;;;;;;;1.00;1.00;;;;;28.31;41.19;100560.03;5056405;28;45338;-82
2023/09/20 06:21:31;;;;;;;;;0.33;0.33;;;;;28.47;40.79;100592.53;5056264;28;45400;-81
2023/09/20 06:23:57;;;;;;;;;3.67;1.67;;;;;28.40;40.75;100573.88;5056242;28;45418;-82
2023/09/20 06:26:23;;;;;;;;;1.00;1.00;;;;;28.46;41.11;100575.66;5055523;28;45390;-82
2023/09/20 06:28:49;;;;;;;;;2.00;2.00;;;;;28.39;40.91;100569.59;5056334;28;45227;-81
2023/09/20 06:31:16;;;;;;;;;1.00;1.00;;;;;28.48;40.71;100583.44;5056104;28;45946;-81
2023/09/20 06:33:44;;;;;;;;;4.00;1.00;;;;;28.50;40.73;100578.69;5055879;28;45529;-82
2023/09/20 06:36:17;;;;;;;;;1.00;1.00;;;;;28.14;40.51;100522.44;5056060;28;45432;-81
2023/09/20 06:38:43;;;;;;;;;2.00;2.00;;;;;28.22;41.13;100524.78;5055725;28;45332;-82
2023/09/20 06:41:08;;;;;;;;;2.33;2.33;;;;;28.55;41.03;100567.31;5056022;28;46296;-82
2023/09/20 06:43:33;;;;;;;;;1.00;1.00;;;;;28.55;41.11;100567.31;5056268;28;45372;-82
2023/09/20 06:46:02;;;;;;;;;1.00;1.00;;;;;28.31;40.75;100535.97;5056175;28;45445;-82
2023/09/20 06:48:29;;;;;;;;;1.00;1.00;;;;;28.54;41.19;100568.34;5056232;28;45464;-78
2023/09/20 06:50:55;;;;;;;;;1.00;1.00;;;;;28.50;40.95;100576.00;5055261;28;45921;-77
2023/09/20 06:53:23;;;;;;;;;5.00;1.00;;;;;28.54;41.33;100579.03;5055518;28;45240;-75
2023/09/20 06:55:49;;;;;;;;;0.33;0.33;;;;;28.48;40.92;100578.09;5052212;28;45768;-76
2023/09/20 06:58:15;;;;;;;;;2.33;1.00;;;;;28.53;40.97;100575.56;5053973;28;45284;-76
2023/09/20 07:00:41;;;;;;;;;1.00;1.00;;;;;28.31;40.96;100544.00;5054126;28;45391;-75
2023/09/20 07:03:07;;;;;;;;;1.00;1.00;;;;;28.51;40.98;100583.81;5054237;28;45564;-76
2023/09/20 07:05:33;;;;;;;;;2.00;2.00;;;;;28.49;40.65;100575.22;5055039;28;45344;-76
2023/09/20 07:07:58;;;;;;;;;1.67;1.67;;;;;28.51;41.08;100581.16;5054729;28;45415;-76
2023/09/20 07:10:25;;;;;;;;;2.00;2.00;;;;;28.52;41.01;100576.63;5054413;28;47075;-76
2023/09/20 07:12:50;;;;;;;;;2.67;2.00;;;;;28.39;40.87;100548.97;5054538;28;45448;-76
2023/09/20 07:15:18;;;;;;;;;1.00;1.00;;;;;28.45;40.74;100566.00;5054871;28;45766;-76
2023/09/20 07:17:44;;;;;;;;;2.00;2.00;;;;;28.50;40.57;100567.97;5054571;28;45541;-76
2023/09/20 07:20:20;;;;;;;;;1.00;1.00;;;;;28.57;40.76;100576.72;5058330;28;45363;-76
2023/09/20 07:22:47;;;;;;;;;2.33;2.33;;;;;28.59;40.71;100577.31;5057679;28;45480;-76
2023/09/20 07:25:23;;;;;;;;;3.00;1.00;;;;;28.60;40.33;100573.56;5058098;28;45348;-77
2023/09/20 07:27:51;;;;;;;;;1.00;1.00;;;;;28.56;41.01;100571.59;5057772;28;45573;-77
2023/09/20 07:30:21;;;;;;;;;3.00;2.00;;;;;28.45;40.98;100533.91;5058394;28;46055;-76
2023/09/20 07:32:50;;;;;;;;;1.00;1.00;;;;;28.58;40.88;100558.78;5057544;28;45825;-76
2023/09/20 07:35:26;;;;;;;;;1.67;1.67;;;;;28.57;40.45;100558.00;5058090;28;45278;-78
2023/09/20 07:37:58;;;;;;;;;1.67;1.67;;;;;28.57;40.98;100555.31;5037619;28;45523;-77
2023/09/20 07:40:30;;;;;;;;;1.00;1.00;;;;;28.57;40.34;100555.31;5037967;28;47196;-77
2023/09/20 07:43:15;;;;;;;;;1.00;1.00;;;;;28.56;40.52;100548.31;5052223;28;45403;-78
2023/09/20 07:45:41;;;;;;;;;1.00;1.00;;;;;28.43;40.66;100527.13;5058129;28;45509;-77
2023/09/20 07:48:16;;;;;;;;;1.00;1.00;;;;;28.19;40.50;100487.78;5057974;28;45379;-77
2023/09/20 07:50:49;;;;;;;;;4.00;1.33;;;;;28.54;40.69;100531.69;5057789;28;47129;-77
2023/09/20 07:53:19;;;;;;;;;2.00;2.00;;;;;28.53;41.01;100535.41;5057586;28;45410;-78
2023/09/20 07:56:06;;;;;;;;;2.00;2.00;;;;;28.46;40.95;100521.34;5056824;28;45344;-76
2023/09/20 07:58:32;;;;;;;;;1.67;1.00;;;;;28.51;40.75;100532.16;5057958;28;45557;-77
2023/09/20 08:00:58;;;;;;;;;2.00;2.00;;;;;28.51;40.58;100532.16;5057719;28;45864;-77
2023/09/20 08:03:24;;;;;;;;;2.67;1.33;;;;;28.50;40.88;100533.19;5057638;28;45567;-77
2023/09/20 08:05:50;;;;;;;;;1.00;1.00;;;;;28.49;40.46;100528.91;5058073;28;45320;-77
2023/09/20 08:08:16;;;;;;;;;1.33;1.33;;;;;28.25;40.92;100496.75;5057440;28;45349;-77
2023/09/20 08:10:43;;;;;;;;;1.00;1.00;;;;;28.40;41.05;100523.03;5057624;28;46127;-77
2023/09/20 08:13:09;;;;;;;;;1.67;1.00;;;;;28.49;40.46;100524.38;5057940;28;45375;-76
2023/09/20 08:15:39;;;;;;;;;3.00;2.00;;;;;28.47;40.82;100521.09;5057866;28;45434;-76
2023/09/20 08:20:49;;;;;;;;;2.67;1.33;;;;;28.45;40.50;100536.56;5057563;28;45390;-77
2023/09/20 09:01:44;;;;;;;;;1.00;1.00;;;;;28.39;40.56;100537.47;5056682;28;45486;-76
2023/09/20 09:04:12;;;;;;;;;1.00;1.00;;;;;28.38;40.77;100535.84;5056443;28;45408;-76
2023/09/20 09:06:38;;;;;;;;;3.00;2.00;;;;;28.44;41.18;100536.78;5056315;28;45389;-77
2023/09/20 09:09:03;;;;;;;;;3.00;3.00;;;;;28.41;40.68;100532.72;5056799;28;45343;-76
2023/09/20 09:11:29;;;;;;;;;2.00;2.00;;;;;28.44;40.54;100534.94;5056763;28;45476;-76
2023/09/20 09:13:58;;;;;;;;;1.00;1.00;;;;;28.37;40.49;100513.63;5056667;28;46436;-76
2023/09/20 09:16:33;;;;;;;;;2.00;2.00;;;;;28.22;40.35;100506.06;5056550;28;45308;-76
2023/09/20 09:18:58;;;;;;;;;2.33;1.00;;;;;28.46;40.84;100529.38;5056028;28;45395;-76
2023/09/20 09:21:25;;;;;;;;;2.00;2.00;;;;;28.36;40.73;100514.69;5056747;28;45398;-76
2023/09/20 09:23:50;;;;;;;;;1.00;1.00;;;;;28.47;40.86;100522.97;5056701;28;45439;-76
2023/09/20 09:26:16;;;;;;;;;2.33;1.00;;;;;28.48;40.74;100521.91;5054971;28;45772;-77
2023/09/20 09:28:44;;;;;;;;;2.00;2.00;;;;;28.48;40.63;100521.91;5056786;28;45382;-76
2023/09/20 09:31:09;;;;;;;;;3.67;2.00;;;;;28.48;40.15;100519.25;5056205;28;45486;-76
2023/09/20 09:33:37;;;;;;;;;1.33;1.33;;;;;28.49;40.37;100515.53;5055928;28;45268;-76
2023/09/20 09:36:04;;;;;;;;;1.00;1.00;;;;;28.46;40.51;100497.25;5056443;28;45350;-76
2023/09/20 09:38:33;;;;;;;;;1.00;1.00;;;;;28.45;40.77;100509.81;5056348;28;45435;-76
2023/09/20 09:40:59;;;;;;;;;1.67;1.67;;;;;28.47;40.82;100509.59;5054548;28;45476;-76
2023/09/20 09:43:31;;;;;;;;;2.33;1.00;;;;;28.49;40.41;100515.53;5056079;28;45433;-76
2023/09/20 09:46:08;;;;;;;;;2.33;1.67;;;;;28.49;40.54;100519.03;5056071;28;45386;-76
2023/09/20 09:48:34;;;;;;;;;2.67;1.00;;;;;28.44;40.32;100508.16;5056218;28;45444;-76
2023/09/20 09:51:01;;;;;;;;;2.00;1.67;;;;;28.40;40.91;100504.31;5056185;28;45388;-77
2023/09/20 09:53:29;;;;;;;;;2.67;2.00;;;;;28.35;41.02;100501.53;5055942;28;47178;-76
2023/09/20 09:55:56;;;;;;;;;1.33;1.33;;;;;28.47;40.46;100522.97;5055874;28;45414;-76
2023/09/20 09:58:21;;;;;;;;;1.00;1.00;;;;;28.34;41.00;100495.34;5056309;28;45390;-76
2023/09/20 10:00:55;;;;;;;;;4.00;2.00;;;;;28.44;40.48;100510.03;5056322;28;45291;-76
2023/09/20 10:03:29;;;;;;;;;1.00;1.00;;;;;28.43;40.85;100506.53;5055529;28;45316;-75
2023/09/20 10:06:01;;;;;;;;;3.00;1.00;;;;;28.36;40.49;100503.97;5055966;28;45304;-76
2023/09/20 10:08:29;;;;;;;;;3.33;1.33;;;;;28.31;40.51;100490.47;5056070;28;45275;-76
2023/09/20 10:10:59;;;;;;;;;1.67;1.67;;;;;28.38;40.58;100501.06;5055741;28;45406;-76
2023/09/20 10:13:28;;;;;;;;;2.67;2.00;;;;;28.43;40.39;100503.03;5055771;28;46539;-76
2023/09/20 10:15:55;;;;;;;;;1.00;1.00;;;;;28.43;40.53;100495.81;5055855;28;45475;-76
2023/09/20 10:18:21;;;;;;;;;2.00;2.00;;;;;28.35;40.82;100480.94;5055414;28;45422;-76
2023/09/20 10:21:10;;;;;;;;;1.67;1.67;;;;;28.43;40.54;100486.97;5055643;28;45414;-76
2023/09/20 10:23:37;;;;;;;;;2.33;1.67;;;;;28.47;40.76;100480.16;5056014;28;46730;-76
2023/09/20 10:26:14;;;;;;;;;2.00;2.00;;;;;28.47;40.60;100475.59;5055532;28;45482;-76
2023/09/20 10:28:44;;;;;;;;;2.33;1.00;;;;;28.42;40.95;100447.91;5055726;28;45354;-76
2023/09/20 10:31:17;;;;;;;;;1.00;1.00;;;;;28.50;40.51;100459.09;5055649;28;45342;-76
2023/09/20 10:33:55;;;;;;;;;1.33;1.33;;;;;28.50;40.32;100451.06;5054941;28;45399;-76
2023/09/20 10:36:27;;;;;;;;;1.00;1.00;;;;;28.43;40.71;100439.66;5055331;28;45428;-77
2023/09/20 10:39:13;;;;;;;;;1.33;1.33;;;;;28.51;40.37;100443.84;5055179;28;45356;-76
2023/09/20 10:41:42;;;;;;;;;1.00;1.00;;;;;28.46;40.90;100427.69;5055536;28;45469;-76
2023/09/20 10:44:22;;;;;;;;;4.00;2.00;;;;;28.52;40.55;100429.44;5055466;28;45418;-76
2023/09/20 10:46:50;;;;;;;;;1.00;1.00;;;;;28.40;40.95;100408.81;5054639;28;45459;-76
2023/09/20 10:49:16;;;;;;;;;2.00;2.00;;;;;28.49;40.38;100427.22;5055332;28;45621;-77
2023/09/20 10:51:44;;;;;;;;;0.33;0.33;;;;;28.44;40.86;100413.72;5055040;28;45540;-77
2023/09/20 10:54:30;;;;;;;;;3.00;2.00;;;;;28.36;40.81;100396.97;5057363;28;47168;-76
2023/09/20 10:57:10;;;;;;;;;3.00;2.00;;;;;28.51;40.55;100422.44;5058671;28;45349;-76
2023/09/20 10:59:37;;;;;;;;;2.00;2.00;;;;;28.49;40.87;100417.34;5058987;28;45548;-76
2023/09/20 11:02:05;;;;;;;;;2.00;2.00;;;;;28.50;40.53;100415.47;5058460;28;45454;-76
2023/09/20 11:04:31;;;;;;;;;1.00;1.00;;;;;28.36;40.94;100382.78;5058500;28;46103;-76
2023/09/20 11:07:02;;;;;;;;;2.00;2.00;;;;;28.50;40.93;100402.91;5058433;28;45430;-76
2023/09/20 11:09:31;;;;;;;;;3.00;3.00;;;;;28.48;40.87;100396.97;5058695;28;45361;-76
2023/09/20 11:12:06;;;;;;;;;1.67;1.67;;;;;28.52;40.54;100397.31;5058749;28;45303;-75
2023/09/20 11:14:33;;;;;;;;;2.00;2.00;;;;;28.50;40.29;100380.66;5058441;28;46366;-76
2023/09/20 11:16:59;;;;;;;;;3.67;2.67;;;;;28.51;40.61;100387.66;5058102;28;45303;-76
2023/09/20 11:19:25;;;;;;;;;5.33;2.67;;;;;28.54;40.20;100384.53;5058304;28;45375;-75
2023/09/20 11:21:52;;;;;;;;;3.00;2.00;;;;;28.46;40.67;100363.47;5053651;28;45533;-76
2023/09/20 11:24:18;;;;;;;;;2.00;1.00;;;;;28.44;40.60;100355.66;5057492;28;46380;-78
2023/09/20 11:26:47;;;;;;;;;3.33;1.67;;;;;28.55;40.26;100378.09;5057457;28;45402;-77
2023/09/20 11:29:15;;;;;;;;;2.00;1.00;;;;;28.53;40.33;100390.91;5062677;28;45307;-76
2023/09/20 11:31:45;;;;;;;;;3.00;3.00;;;;;28.53;40.79;100374.84;5072977;28;45423;-75
2023/09/20 11:34:11;;;;;;;;;1.67;1.67;;;;;28.52;40.66;100379.38;5067310;28;46144;-76
2023/09/20 11:36:43;;;;;;;;;1.00;1.00;;;;;28.55;40.47;100378.09;5072289;27;45451;-75
2023/09/20 11:39:09;;;;;;;;;2.00;2.00;;;;;28.55;40.58;100371.97;5077557;27;45267;-75
2023/09/20 11:41:37;;;;;;;;;3.00;2.00;;;;;28.55;40.82;100375.44;5061432;27;45578;-75
2023/09/20 11:44:06;;;;;;;;;3.67;3.67;;;;;28.52;40.84;100368.69;5039852;28;46443;-75
2023/09/20 11:46:35;;;;;;;;;2.00;2.00;;;;;28.43;40.56;100348.69;5051529;28;45558;-74
2023/09/20 11:49:03;;;;;;;;;3.67;2.00;;;;;28.56;40.68;100355.66;5055878;28;45443;-74
2023/09/20 11:51:30;;;;;;;;;2.00;2.00;;;;;28.50;40.63;100348.56;5055496;28;45417;-73
2023/09/20 11:53:56;;;;;;;;;2.00;1.00;;;;;28.45;40.67;100332.41;5074545;27;47155;-79
2023/09/20 11:56:26;;;;;;;;;2.33;1.00;;;;;28.59;40.69;100349.84;5065693;28;45307;-86
2023/09/20 11:58:55;;;;;;;;;3.00;1.33;;;;;28.49;40.43;100331.72;5071689;27;45430;-84
2023/09/20 12:01:23;;;;;;;;;4.00;2.67;;;;;28.49;40.36;100336.25;5070572;27;45529;-77
2023/09/20 12:03:51;;;;;;;;;2.33;1.00;;;;;28.50;40.79;100337.84;5068726;28;45726;-83
2023/09/20 12:06:17;;;;;;;;;1.00;1.00;;;;;28.59;40.87;100349.84;5074678;28;45481;-77
2023/09/20 12:08:43;;;;;;;;;2.00;2.00;;;;;28.49;40.50;100329.03;5073661;28;45380;-79